Terminal Aerodrome Forecast
Issued by NWS Green Bay, WI

Home | Current Version | Previous Version | Text Only | Print | Product List | Glossary Off
Versions: 1 2 3 4 5 6 7 8 9 10 11 12 13 14 15 16 17 18 19 20 21 22 23 24 25 26 27 28 29 30 31 32 33 34 35 36

000
FTUS43 KGRB 262200 AAA
TAFGRB
TAF AMD
KGRB 262211Z 2622/2718 35007KT 5SM BR OVC010
     FM270900 02005KT 5SM -SN BR BKN015
     FM271400 03005KT 1SM -SN BR OVC009
      TEMPO 2714/2718 2SM -RASN BR=

USA.gov is the U.S. government's official web portal to all federal, state and local government web resources and services.